Time;durP1;ratioP1;P1;durP2;ratioP2;P2;SDS_P1;SDS_P2;PMS_P1;PMS_P2;Temp;Humidity;BMP_temperature;BMP_pressure;BME280_temperature;BME280_humidity;BME280_pressure;Samples;Min_cycle;Max_cycle;Signal;HPM_P1;HPM_P2
2022/05/25 00:01:17;;;;;;;2.30;0.80;;;12.60;99.90;;;;;;5082658;28;20051;-85
2022/05/25 00:04:05;;;;;;;2.38;0.82;;;12.60;99.90;;;;;;5101675;28;20059;-87
2022/05/25 00:06:53;;;;;;;0.80;0.80;;;12.60;99.90;;;;;;5099231;28;20048;-85
2022/05/25 00:09:40;;;;;;;0.80;0.80;;;12.60;99.90;;;;;;5110351;28;20058;-86
2022/05/25 00:12:27;;;;;;;1.20;0.85;;;12.60;99.90;;;;;;5107003;28;20071;-86
2022/05/25 00:15:15;;;;;;;1.85;1.00;;;12.50;99.90;;;;;;5082731;28;20039;-84
2022/05/25 00:18:05;;;;;;;1.38;0.77;;;12.50;99.90;;;;;;5113141;28;20104;-86
2022/05/25 00:20:53;;;;;;;2.90;1.27;;;12.40;99.90;;;;;;5107409;28;20043;-86
2022/05/25 00:23:40;;;;;;;2.75;1.10;;;12.30;99.90;;;;;;5072424;28;20060;-85
2022/05/25 00:26:31;;;;;;;2.72;0.90;;;12.30;99.90;;;;;;5101012;28;20048;-85
2022/05/25 00:29:18;;;;;;;2.63;1.05;;;12.30;99.90;;;;;;5112975;28;20074;-85
2022/05/25 00:32:06;;;;;;;4.75;1.15;;;12.40;99.90;;;;;;5089691;28;20055;-85
2022/05/25 00:34:56;;;;;;;1.67;1.10;;;12.50;99.90;;;;;;5099398;28;20044;-86
2022/05/25 00:37:44;;;;;;;3.85;0.98;;;12.50;99.90;;;;;;5091271;28;20045;-86
2022/05/25 00:40:43;;;;;;;1.58;0.85;;;12.60;99.90;;;;;;5102500;28;20062;-86
2022/05/25 00:43:30;;;;;;;3.03;1.10;;;12.60;99.90;;;;;;5112690;28;20100;-85
2022/05/25 00:46:19;;;;;;;1.52;0.88;;;12.60;99.90;;;;;;5101624;28;20070;-87
2022/05/25 00:49:18;;;;;;;2.25;1.10;;;12.70;99.90;;;;;;5098325;28;20076;-87
2022/05/25 00:52:10;;;;;;;1.75;1.00;;;12.60;99.90;;;;;;5096940;28;20036;-81
2022/05/25 00:55:04;;;;;;;1.73;1.00;;;12.70;99.90;;;;;;5111227;28;20104;-85
2022/05/25 00:57:56;;;;;;;3.17;1.25;;;12.60;99.90;;;;;;5106350;28;20055;-86
2022/05/25 01:00:46;;;;;;;2.35;1.00;;;12.60;99.90;;;;;;5104848;28;20063;-84
2022/05/25 01:03:36;;;;;;;2.35;0.70;;;12.60;99.90;;;;;;5105738;28;20043;-84
2022/05/25 01:06:23;;;;;;;3.42;1.00;;;12.60;99.90;;;;;;5114713;28;20131;-85
2022/05/25 01:09:36;;;;;;;2.08;1.10;;;12.60;99.90;;;;;;5109854;28;20043;-84
2022/05/25 01:12:45;;;;;;;1.10;1.00;;;12.50;99.90;;;;;;5075083;28;20157;-83
2022/05/25 01:15:57;;;;;;;1.20;0.90;;;12.50;99.90;;;;;;5090151;28;20127;-85
2022/05/25 01:19:01;;;;;;;2.55;1.23;;;12.50;99.90;;;;;;5098036;28;20047;-86
2022/05/25 01:21:57;;;;;;;2.35;1.25;;;12.50;99.90;;;;;;5103302;28;20185;-84
2022/05/25 01:25:21;;;;;;;3.22;1.00;;;12.50;99.90;;;;;;5096131;28;20067;-85
2022/05/25 01:28:21;;;;;;;1.73;1.05;;;12.40;99.90;;;;;;5089346;28;20067;-84
2022/05/25 01:31:15;;;;;;;1.15;1.05;;;12.40;99.90;;;;;;5096318;28;20082;-85
2022/05/25 01:34:11;;;;;;;4.97;1.33;;;12.40;99.90;;;;;;5111797;28;20116;-84
2022/05/25 01:37:19;;;;;;;3.17;1.10;;;12.30;99.90;;;;;;5105486;28;20044;-86
2022/05/25 01:40:34;;;;;;;2.67;1.30;;;12.30;99.90;;;;;;5093932;28;20117;-82
2022/05/25 01:43:27;;;;;;;4.18;1.42;;;12.20;99.90;;;;;;5102286;28;20130;-86
2022/05/25 01:46:31;;;;;;;3.80;1.40;;;12.20;99.90;;;;;;5096011;28;20133;-84
2022/05/25 01:49:23;;;;;;;1.95;1.70;;;12.10;99.90;;;;;;5078656;28;20124;-86
2022/05/25 01:52:15;;;;;;;2.22;1.55;;;12.00;99.90;;;;;;5104288;28;20392;-85
2022/05/25 01:55:10;;;;;;;4.15;1.50;;;12.00;99.90;;;;;;5083461;28;20052;-85
2022/05/25 01:58:04;;;;;;;3.28;1.52;;;12.00;99.90;;;;;;5084108;28;20067;-87
2022/05/25 02:00:57;;;;;;;3.45;1.60;;;12.00;99.90;;;;;;5097215;28;20051;-87
2022/05/25 02:07:12;;;;;;;3.70;1.50;;;12.00;99.90;;;;;;5081048;28;20059;-87
2022/05/25 02:10:36;;;;;;;3.78;1.50;;;12.00;99.90;;;;;;5114201;28;20179;-86
2022/05/25 02:13:40;;;;;;;4.50;1.90;;;11.90;99.90;;;;;;5100383;28;20128;-85
2022/05/25 02:16:51;;;;;;;2.03;1.10;;;11.90;99.90;;;;;;5097483;28;20327;-86
2022/05/25 02:20:06;;;;;;;3.58;1.40;;;11.90;99.90;;;;;;5062357;28;20123;-84
2022/05/25 02:23:02;;;;;;;3.35;1.58;;;11.90;99.90;;;;;;5113899;28;20036;-88
2022/05/25 02:26:21;;;;;;;2.67;1.30;;;11.80;99.90;;;;;;5081233;28;20040;-85
2022/05/25 02:29:14;;;;;;;2.35;1.30;;;11.80;99.90;;;;;;5103277;28;20079;-84
2022/05/25 02:32:32;;;;;;;1.60;1.50;;;11.70;99.90;;;;;;5114364;28;20194;-83
2022/05/25 02:35:23;;;;;;;4.90;1.70;;;11.60;99.90;;;;;;5079376;28;20044;-83
2022/05/25 02:38:10;;;;;;;2.83;1.35;;;11.60;99.90;;;;;;5074086;28;20082;-83
2022/05/25 02:41:15;;;;;;;2.53;1.45;;;11.60;99.90;;;;;;5092885;28;20058;-84
2022/05/25 02:44:03;;;;;;;4.78;1.30;;;11.60;99.90;;;;;;5087796;28;20155;-83
2022/05/25 02:46:52;;;;;;;1.85;1.50;;;11.60;99.90;;;;;;5109913;28;20079;-84
2022/05/25 02:49:42;;;;;;;3.03;1.30;;;11.50;99.90;;;;;;5116200;28;20051;-84
2022/05/25 02:52:31;;;;;;;2.65;1.50;;;11.50;99.90;;;;;;5106991;28;20109;-86
2022/05/25 02:55:20;;;;;;;2.80;1.45;;;11.50;99.90;;;;;;5120250;28;20086;-83
2022/05/25 02:58:07;;;;;;;2.15;1.35;;;11.50;99.90;;;;;;5123436;28;20103;-86
2022/05/25 03:00:56;;;;;;;1.50;1.20;;;11.50;99.90;;;;;;5097546;28;20181;-84
2022/05/25 03:03:46;;;;;;;1.85;1.40;;;11.50;99.90;;;;;;5108958;28;20083;-84
2022/05/25 03:06:33;;;;;;;2.63;1.30;;;11.50;99.90;;;;;;5094895;28;20040;-86
2022/05/25 03:09:23;;;;;;;2.40;1.30;;;11.50;99.90;;;;;;5106620;28;20070;-85
2022/05/25 03:12:11;;;;;;;4.25;1.25;;;11.50;99.90;;;;;;5098252;28;20075;-83
2022/05/25 03:15:00;;;;;;;2.42;1.20;;;11.50;99.90;;;;;;5099769;28;20055;-83
2022/05/25 03:17:47;;;;;;;1.33;1.23;;;11.50;99.90;;;;;;5112269;28;20128;-85
2022/05/25 03:20:35;;;;;;;2.85;1.38;;;11.50;99.90;;;;;;5104889;28;20104;-85
2022/05/25 03:23:22;;;;;;;4.05;1.33;;;11.50;99.90;;;;;;5103130;28;20052;-84
2022/05/25 03:26:09;;;;;;;1.60;1.13;;;11.50;99.90;;;;;;5094478;28;20108;-84
2022/05/25 03:28:56;;;;;;;2.50;1.38;;;11.40;99.90;;;;;;5087751;28;20051;-84
2022/05/25 03:31:44;;;;;;;1.75;1.30;;;11.40;99.90;;;;;;5083467;28;20496;-84
2022/05/25 03:34:34;;;;;;;3.28;1.50;;;11.40;99.90;;;;;;5111981;28;20063;-84
2022/05/25 03:37:21;;;;;;;2.42;1.40;;;11.40;99.90;;;;;;5100464;28;20181;-85
2022/05/25 03:40:13;;;;;;;3.22;1.55;;;11.40;99.90;;;;;;5077081;28;20086;-85
2022/05/25 03:43:10;;;;;;;1.42;1.33;;;11.40;99.90;;;;;;5083068;28;20079;-86
2022/05/25 03:46:01;;;;;;;2.38;1.38;;;11.40;99.90;;;;;;5111159;28;20470;-84
2022/05/25 03:48:53;;;;;;;2.35;1.30;;;11.40;99.90;;;;;;5102943;28;20043;-83
2022/05/25 03:51:44;;;;;;;3.60;1.25;;;11.40;99.90;;;;;;5086005;28;20077;-85
2022/05/25 03:54:32;;;;;;;2.60;1.40;;;11.30;99.90;;;;;;5093727;28;20047;-84
2022/05/25 03:57:19;;;;;;;1.60;1.15;;;11.20;99.90;;;;;;5062891;28;20063;-86
2022/05/25 04:00:08;;;;;;;1.83;1.48;;;11.30;99.90;;;;;;5079197;28;20071;-84
2022/05/25 04:02:56;;;;;;;5.55;1.30;;;11.20;99.90;;;;;;5091534;28;20130;-84
2022/05/25 04:05:47;;;;;;;3.78;1.45;;;11.20;99.90;;;;;;5081097;28;20048;-83
2022/05/25 04:08:35;;;;;;;2.55;1.30;;;11.20;99.90;;;;;;5094462;28;20108;-85
2022/05/25 04:11:24;;;;;;;2.50;1.23;;;11.30;99.90;;;;;;5091269;28;20471;-84
2022/05/25 04:14:15;;;;;;;1.95;1.27;;;11.30;99.90;;;;;;5083765;28;20147;-83
2022/05/25 04:17:05;;;;;;;3.20;1.67;;;11.30;99.90;;;;;;5087413;28;20074;-82
2022/05/25 04:19:52;;;;;;;1.15;1.05;;;11.30;99.90;;;;;;5092269;28;20074;-84
2022/05/25 04:22:41;;;;;;;2.60;1.10;;;11.40;99.90;;;;;;5093340;28;20144;-85
2022/05/25 04:25:28;;;;;;;1.90;0.95;;;11.40;99.90;;;;;;5077362;28;20622;-84
2022/05/25 04:28:15;;;;;;;2.70;1.10;;;11.50;99.90;;;;;;5084039;28;20119;-85
2022/05/25 04:31:03;;;;;;;1.45;1.00;;;11.50;99.90;;;;;;5094120;28;20055;-85
2022/05/25 04:33:50;;;;;;;3.03;1.45;;;11.50;99.90;;;;;;5077690;28;20044;-85
2022/05/25 04:36:42;;;;;;;1.95;1.25;;;11.60;99.90;;;;;;5102654;28;20055;-83
2022/05/25 04:39:29;;;;;;;5.45;1.38;;;11.60;99.90;;;;;;5095489;28;20094;-82
2022/05/25 04:42:16;;;;;;;1.15;1.00;;;11.70;99.90;;;;;;5095379;28;20128;-83
2022/05/25 04:45:05;;;;;;;3.05;1.40;;;11.70;99.90;;;;;;5092346;28;20056;-84
2022/05/25 04:47:56;;;;;;;1.70;1.20;;;11.70;99.90;;;;;;5087058;28;20048;-85
2022/05/25 04:50:46;;;;;;;1.38;1.00;;;11.80;99.90;;;;;;5074641;28;20085;-85
2022/05/25 04:53:34;;;;;;;4.50;2.75;;;11.80;99.90;;;;;;5080535;28;20140;-88
2022/05/25 04:59:27;;;;;;;2.20;1.13;;;11.70;99.90;;;;;;5091729;28;20487;-83
2022/05/25 05:02:16;;;;;;;1.38;1.20;;;11.80;99.90;;;;;;5093331;28;20047;-82
2022/05/25 05:05:03;;;;;;;2.88;1.00;;;11.80;99.90;;;;;;5102659;28;20445;-84
2022/05/25 05:07:51;;;;;;;3.78;1.52;;;11.70;99.90;;;;;;5090236;28;20204;-84
2022/05/25 05:10:39;;;;;;;2.50;1.00;;;11.70;99.90;;;;;;5089736;28;20062;-84
2022/05/25 05:13:28;;;;;;;2.30;1.42;;;11.70;99.90;;;;;;5104932;28;20044;-82
2022/05/25 05:16:19;;;;;;;3.92;1.50;;;11.70;99.90;;;;;;5089203;28;20052;-85
2022/05/25 05:19:06;;;;;;;3.42;1.60;;;11.70;99.90;;;;;;5082595;28;20047;-84
2022/05/25 05:21:57;;;;;;;3.58;1.38;;;11.80;99.90;;;;;;5096458;28;20210;-83
2022/05/25 05:24:44;;;;;;;5.20;1.52;;;11.90;99.90;;;;;;5090108;28;20136;-84
2022/05/25 05:27:31;;;;;;;4.35;1.20;;;12.00;99.90;;;;;;5077639;28;20495;-86
2022/05/25 05:30:23;;;;;;;1.92;1.42;;;12.10;99.90;;;;;;5091433;28;20059;-84
2022/05/25 05:33:10;;;;;;;1.35;1.00;;;12.20;99.90;;;;;;5107016;28;20176;-86
2022/05/25 05:36:22;;;;;;;1.33;1.23;;;12.20;99.90;;;;;;5099365;28;20048;-83
2022/05/25 05:39:13;;;;;;;1.73;1.10;;;12.20;99.90;;;;;;5101590;28;20052;-86
2022/05/25 05:42:07;;;;;;;3.67;1.10;;;12.30;99.90;;;;;;5097260;28;20059;-84
2022/05/25 05:44:58;;;;;;;1.77;1.10;;;12.40;99.90;;;;;;5105564;28;20051;-88
2022/05/25 05:47:53;;;;;;;3.83;1.05;;;12.40;99.90;;;;;;5087190;28;20045;-83
2022/05/25 05:50:43;;;;;;;2.65;1.13;;;12.50;99.90;;;;;;5099767;28;20126;-84
2022/05/25 05:53:30;;;;;;;3.70;1.50;;;12.50;99.90;;;;;;5076413;28;20287;-83
2022/05/25 05:56:19;;;;;;;1.17;0.98;;;12.70;99.90;;;;;;5095186;28;20039;-83
2022/05/25 05:59:12;;;;;;;4.03;1.02;;;12.80;99.90;;;;;;5077339;28;20062;-84
2022/05/25 06:02:00;;;;;;;1.33;1.20;;;12.90;99.90;;;;;;5109442;28;20143;-82
2022/05/25 06:04:48;;;;;;;5.93;1.20;;;12.80;99.90;;;;;;5073189;28;20052;-84
2022/05/25 06:07:36;;;;;;;4.97;1.90;;;12.70;99.90;;;;;;5082901;28;20051;-85
2022/05/25 06:10:23;;;;;;;2.53;1.00;;;13.00;99.90;;;;;;5109392;28;20116;-84
2022/05/25 06:13:13;;;;;;;1.70;0.82;;;13.40;99.90;;;;;;5088513;28;20107;-84
2022/05/25 06:19:30;;;;;;;2.83;0.90;;;14.00;99.90;;;;;;5084872;28;20366;-83
2022/05/25 06:22:20;;;;;;;1.45;0.88;;;14.30;99.90;;;;;;5066050;28;20438;-87
2022/05/25 06:25:10;;;;;;;1.88;1.02;;;14.50;99.90;;;;;;5060796;28;20051;-85
2022/05/25 06:27:57;;;;;;;1.30;0.80;;;14.40;99.90;;;;;;5077043;28;20055;-86
2022/05/25 06:30:48;;;;;;;3.05;0.80;;;14.40;99.90;;;;;;5103351;28;20718;-84
2022/05/25 06:33:38;;;;;;;4.40;0.90;;;14.30;99.90;;;;;;5122367;28;20051;-85
2022/05/25 06:36:28;;;;;;;2.05;0.90;;;14.20;99.90;;;;;;5107606;28;20050;-85
2022/05/25 06:39:16;;;;;;;2.65;1.20;;;14.30;99.90;;;;;;5126770;28;20050;-80
2022/05/25 06:42:05;;;;;;;4.05;1.00;;;14.30;99.90;;;;;;5131868;28;20032;-86
2022/05/25 06:44:55;;;;;;;2.47;1.10;;;14.40;99.90;;;;;;5085346;28;20107;-87
2022/05/25 06:47:43;;;;;;;3.95;0.93;;;15.00;99.90;;;;;;5117064;28;20494;-85
2022/05/25 06:50:31;;;;;;;4.53;1.15;;;15.30;99.90;;;;;;5120747;28;20066;-87
2022/05/25 06:53:21;;;;;;;4.50;0.95;;;15.30;99.90;;;;;;5124233;28;20050;-87
2022/05/25 06:56:08;;;;;;;4.35;1.25;;;15.50;99.90;;;;;;5091038;28;20048;-86
2022/05/25 06:58:56;;;;;;;3.10;1.13;;;16.20;99.90;;;;;;5090319;28;20567;-87
2022/05/25 07:01:44;;;;;;;2.05;1.00;;;16.60;99.90;;;;;;5101195;28;20410;-87
2022/05/25 07:04:31;;;;;;;2.25;0.80;;;17.30;99.90;;;;;;5076143;28;20040;-83
2022/05/25 07:07:29;;;;;;;4.25;0.65;;;17.60;99.80;;;;;;5107518;28;20048;-86
2022/05/25 07:10:16;;;;;;;1.55;1.02;;;18.30;99.40;;;;;;5122554;28;20073;-88
2022/05/25 07:13:03;;;;;;;3.33;0.90;;;18.20;92.90;;;;;;5110479;28;20047;-83
2022/05/25 07:15:55;;;;;;;5.18;0.80;;;17.80;91.90;;;;;;5083609;28;20044;-84
2022/05/25 07:18:46;;;;;;;3.20;1.02;;;17.90;92.80;;;;;;5087264;28;20078;-83
2022/05/25 07:21:36;;;;;;;2.67;0.90;;;18.00;91.10;;;;;;5104515;28;20059;-87
2022/05/25 07:24:23;;;;;;;4.68;1.45;;;18.10;94.80;;;;;;5104483;28;20044;-87
2022/05/25 07:27:15;;;;;;;3.88;1.30;;;18.70;91.30;;;;;;5112098;28;20058;-80
2022/05/25 07:30:03;;;;;;;6.40;2.63;;;19.40;87.70;;;;;;5108254;28;20063;-88
2022/05/25 07:32:50;;;;;;;3.22;1.00;;;19.00;85.50;;;;;;5102313;28;20085;-86
2022/05/25 07:35:38;;;;;;;2.38;0.82;;;18.60;84.70;;;;;;5098076;28;20040;-84
2022/05/25 07:38:28;;;;;;;5.85;3.97;;;17.90;86.00;;;;;;5078952;28;20052;-82
2022/05/25 07:41:17;;;;;;;3.88;1.25;;;17.50;91.20;;;;;;5082261;28;20070;-85
2022/05/25 07:44:08;;;;;;;3.50;2.20;;;17.50;91.10;;;;;;5095069;28;20105;-84
2022/05/25 07:46:56;;;;;;;4.70;0.70;;;18.40;95.30;;;;;;5077838;28;20571;-84
2022/05/25 07:49:46;;;;;;;2.75;0.80;;;18.90;85.80;;;;;;5093951;28;20405;-81
2022/05/25 07:52:43;;;;;;;6.10;1.15;;;18.40;86.00;;;;;;5095429;28;20098;-83
2022/05/25 07:55:31;;;;;;;2.22;0.80;;;17.70;89.60;;;;;;5093880;28;20036;-81
2022/05/25 07:58:20;;;;;;;1.52;1.30;;;17.00;91.30;;;;;;5089691;28;20036;-84
2022/05/25 08:05:43;;;;;;;4.40;1.27;;;16.90;92.70;;;;;;5091182;28;20372;-84
2022/05/25 08:07:38;;;;;;;1.35;1.00;;;17.70;92.00;;;;;;5091743;28;20082;-85
2022/05/25 08:10:31;;;;;;;3.83;0.73;;;18.40;94.70;;;;;;5093316;28;21131;-84
2022/05/25 08:13:21;;;;;;;3.97;0.60;;;19.40;86.30;;;;;;5098855;28;20047;-85
2022/05/25 08:16:11;;;;;;;1.45;0.70;;;20.50;85.10;;;;;;5081866;28;20044;-85
2022/05/25 08:18:59;;;;;;;3.35;0.47;;;21.40;81.70;;;;;;5091534;28;20037;-85
2022/05/25 08:21:52;;;;;;;1.80;0.45;;;22.20;71.00;;;;;;5091789;28;20051;-83
2022/05/25 08:24:43;;;;;;;0.98;0.80;;;20.80;67.60;;;;;;5105248;28;20169;-82
2022/05/25 08:27:31;;;;;;;1.33;0.80;;;19.90;71.60;;;;;;5086279;28;20063;-84
2022/05/25 08:30:20;;;;;;;3.60;1.02;;;19.70;76.50;;;;;;5081446;28;20726;-84
2022/05/25 08:33:08;;;;;;;3.70;0.80;;;19.70;74.60;;;;;;5100709;28;20054;-85
2022/05/25 08:35:55;;;;;;;1.45;0.70;;;19.60;72.80;;;;;;5104051;28;20047;-85
2022/05/25 08:38:42;;;;;;;2.08;0.90;;;19.90;74.90;;;;;;5058916;28;20103;-83
2022/05/25 08:41:36;;;;;;;3.60;0.75;;;20.20;70.10;;;;;;5096350;28;20259;-84
2022/05/25 08:44:24;;;;;;;2.83;0.50;;;20.40;73.10;;;;;;5084654;28;20053;-83
2022/05/25 08:47:12;;;;;;;2.90;0.95;;;21.00;68.30;;;;;;5099195;28;20052;-84
2022/05/25 08:50:03;;;;;;;1.67;0.70;;;21.10;69.40;;;;;;5078394;28;20040;-87
2022/05/25 08:52:59;;;;;;;3.35;0.65;;;21.60;67.10;;;;;;5079148;28;20050;-84
2022/05/25 08:55:59;;;;;;;2.17;0.80;;;21.30;66.50;;;;;;5094626;28;20122;-86
2022/05/25 08:59:14;;;;;;;3.00;0.60;;;21.80;63.90;;;;;;5090941;28;20123;-84
2022/05/25 09:02:35;;;;;;;1.52;0.52;;;22.10;62.40;;;;;;5090502;28;20081;-85
2022/05/25 09:05:40;;;;;;;2.45;0.50;;;20.90;60.80;;;;;;5085444;28;20058;-85
2022/05/25 09:08:45;;;;;;;1.45;0.60;;;20.80;66.10;;;;;;5103241;28;20043;-86
2022/05/25 09:11:50;;;;;;;1.58;0.68;;;21.90;63.30;;;;;;5083513;28;20071;-84
2022/05/25 09:14:52;;;;;;;1.08;0.57;;;22.60;59.60;;;;;;5092411;28;20207;-84
2022/05/25 09:17:51;;;;;;;2.03;0.65;;;22.50;59.30;;;;;;5096260;28;20051;-84
2022/05/25 09:20:44;;;;;;;1.40;0.47;;;21.80;58.70;;;;;;5081567;28;20040;-84
2022/05/25 09:23:33;;;;;;;2.38;0.70;;;20.00;61.10;;;;;;5110037;28;20482;-86
2022/05/25 09:26:22;;;;;;;2.75;1.15;;;19.20;65.30;;;;;;5088389;28;20189;-85
2022/05/25 09:29:11;;;;;;;1.40;0.82;;;20.00;66.60;;;;;;5096051;28;20063;-87
2022/05/25 09:32:07;;;;;;;2.05;1.10;;;20.30;65.90;;;;;;5093226;28;20106;-84
2022/05/25 09:35:12;;;;;;;4.22;3.47;;;21.20;59.80;;;;;;5090516;28;20051;-85
2022/05/25 09:38:23;;;;;;;1.95;0.80;;;22.20;59.90;;;;;;5079824;28;20147;-85
2022/05/25 09:41:18;;;;;;;0.55;0.55;;;21.90;56.20;;;;;;5079481;28;20776;-85
2022/05/25 09:44:06;;;;;;;1.08;0.80;;;20.80;57.20;;;;;;5090964;28;20116;-87
2022/05/25 09:47:03;;;;;;;1.55;0.80;;;20.20;61.70;;;;;;5088438;28;20055;-86
2022/05/25 09:49:57;;;;;;;3.38;0.80;;;19.80;64.70;;;;;;5104710;28;20048;-85
2022/05/25 09:52:49;;;;;;;3.33;0.60;;;19.80;64.20;;;;;;5105441;28;20136;-84
2022/05/25 09:56:15;;;;;;;3.70;0.82;;;19.90;64.00;;;;;;5077555;28;20037;-85
2022/05/25 09:59:06;;;;;;;5.30;0.80;;;19.90;71.40;;;;;;5085956;28;20097;-82
2022/05/25 10:01:54;;;;;;;3.78;0.65;;;19.90;67.00;;;;;;5104835;28;20044;-85
2022/05/25 10:04:55;;;;;;;3.78;0.70;;;19.90;70.60;;;;;;5086470;28;20048;-84
2022/05/25 10:08:03;;;;;;;2.72;0.80;;;19.90;73.10;;;;;;5099876;28;20047;-84
2022/05/25 10:10:56;;;;;;;1.55;0.70;;;19.70;68.70;;;;;;5097504;28;20066;-83
2022/05/25 10:13:44;;;;;;;2.15;0.60;;;20.60;72.00;;;;;;5078020;28;20398;-84
2022/05/25 10:16:31;;;;;;;1.02;0.60;;;21.50;65.70;;;;;;5084314;28;20457;-87
2022/05/25 10:19:20;;;;;;;2.72;0.50;;;21.80;64.60;;;;;;5060243;28;20089;-83
2022/05/25 10:22:23;;;;;;;0.77;0.50;;;23.20;64.30;;;;;;5090049;28;20052;-84
2022/05/25 10:25:26;;;;;;;3.75;0.55;;;24.70;56.20;;;;;;5086255;28;20608;-84
2022/05/25 10:28:28;;;;;;;;;;;24.90;51.40;;;;;;5087777;28;20067;-83
2022/05/25 10:37:57;;;;;;;2.78;0.70;;;22.00;59.20;;;;;;5088169;28;20052;-84
2022/05/25 10:40:45;;;;;;;2.38;0.52;;;21.30;59.40;;;;;;5104872;28;20044;-84
2022/05/25 10:43:42;;;;;;;4.70;0.73;;;22.40;56.70;;;;;;5081861;28;20770;-86
2022/05/25 10:46:31;;;;;;;1.85;0.55;;;22.70;56.00;;;;;;5093381;28;20051;-82
2022/05/25 10:49:29;;;;;;;2.13;0.60;;;23.60;51.90;;;;;;5093357;28;20077;-84
2022/05/25 10:52:43;;;;;;;3.35;0.80;;;23.80;50.90;;;;;;5091379;28;20055;-85
2022/05/25 10:55:58;;;;;;;0.88;0.55;;;24.50;52.50;;;;;;5069665;28;20036;-87
2022/05/25 10:59:24;;;;;;;3.15;0.60;;;23.30;52.80;;;;;;5094091;28;20055;-83
2022/05/25 11:02:35;;;;;;;2.78;0.57;;;23.70;50.10;;;;;;5090396;28;20043;-85
2022/05/25 11:05:28;;;;;;;1.50;0.50;;;25.30;47.70;;;;;;5097282;28;20051;-84
2022/05/25 11:08:28;;;;;;;4.45;0.82;;;25.50;50.10;;;;;;5098983;28;20047;-85
2022/05/25 11:11:50;;;;;;;1.25;0.45;;;24.70;47.00;;;;;;5091660;28;20109;-87
2022/05/25 11:14:52;;;;;;;3.72;0.70;;;23.10;51.90;;;;;;5097825;28;20044;-87
2022/05/25 11:17:54;;;;;;;5.60;0.82;;;21.80;54.30;;;;;;5100627;28;20044;-86
2022/05/25 11:21:08;;;;;;;11.85;1.13;;;21.10;56.70;;;;;;5079907;28;20684;-83
2022/05/25 11:24:14;;;;;;;21.83;1.20;;;23.20;53.30;;;;;;5104499;28;20040;-84
2022/05/25 11:27:39;;;;;;;3.65;0.50;;;24.60;51.70;;;;;;5084112;28;20052;-85
2022/05/25 11:30:46;;;;;;;3.10;0.60;;;25.70;51.90;;;;;;5099283;28;20079;-87
2022/05/25 11:34:05;;;;;;;0.88;0.30;;;26.70;44.80;;;;;;5091906;28;20052;-89
2022/05/25 11:37:35;;;;;;;2.20;0.60;;;26.60;46.00;;;;;;5089385;28;20063;-83
2022/05/25 11:40:57;;;;;;;2.25;0.52;;;25.30;46.20;;;;;;5099094;28;20054;-84
2022/05/25 11:44:07;;;;;;;2.53;0.57;;;23.80;46.80;;;;;;5091512;28;20448;-83
2022/05/25 11:47:06;;;;;;;1.17;0.63;;;22.50;48.30;;;;;;5084705;28;20052;-84
2022/05/25 11:50:11;;;;;;;1.85;0.80;;;21.90;53.60;;;;;;5112607;28;20124;-85
2022/05/25 11:53:26;;;;;;;1.52;0.80;;;21.70;52.30;;;;;;5086071;28;20544;-84
2022/05/25 11:56:41;;;;;;;1.63;0.60;;;20.90;53.80;;;;;;5110484;28;20063;-84
2022/05/25 11:59:51;;;;;;;4.75;0.65;;;20.30;58.30;;;;;;5109981;28;20036;-83
2022/05/25 12:03:03;;;;;;;4.15;0.75;;;21.40;54.70;;;;;;5098873;28;20094;-80
2022/05/25 12:06:27;;;;;;;2.83;0.77;;;23.00;50.50;;;;;;5114448;28;20047;-83
2022/05/25 12:09:34;;;;;;;2.47;0.60;;;24.60;47.20;;;;;;5105854;28;20064;-81
2022/05/25 12:12:42;;;;;;;9.48;1.17;;;24.70;44.90;;;;;;5106606;28;20112;-88
2022/05/25 12:15:32;;;;;;;9.50;0.85;;;25.10;45.70;;;;;;5104631;28;20063;-84
2022/05/25 12:19:03;;;;;;;1.42;0.50;;;26.30;45.40;;;;;;5104124;28;20362;-86
2022/05/25 12:21:55;;;;;;;1.83;0.50;;;26.70;38.80;;;;;;5090723;28;20119;-87
2022/05/25 12:24:47;;;;;;;;;;;25.80;40.40;;;;;;5096492;28;20128;-86
2022/05/25 12:27:48;;;;;;;5.43;0.57;;;25.50;40.70;;;;;;5094901;28;19924;-89
2022/05/25 12:30:41;;;;;;;0.50;0.40;;;24.20;46.90;;;;;;5057052;28;20311;-85
2022/05/25 12:33:30;;;;;;;2.83;0.50;;;23.60;50.60;;;;;;5107415;28;20197;-86
2022/05/25 12:36:19;;;;;;;0.68;0.28;;;23.80;51.80;;;;;;5100254;28;20105;-87
2022/05/25 12:39:08;;;;;;;5.15;0.77;;;26.10;42.90;;;;;;5094385;28;20051;-83
2022/05/25 12:42:24;;;;;;;2.40;0.52;;;26.00;37.80;;;;;;5104376;28;20098;-83
2022/05/25 12:49:02;;;;;;;8.30;0.47;;;22.60;46.40;;;;;;5082185;28;20071;-86
2022/05/25 12:51:49;;;;;;;0.82;0.43;;;22.20;46.90;;;;;;5104679;28;20047;-85
2022/05/25 12:54:43;;;;;;;2.05;0.70;;;22.30;54.20;;;;;;5085713;28;20048;-82
2022/05/25 12:57:45;;;;;;;6.78;0.60;;;22.70;49.20;;;;;;5077940;28;20043;-86
2022/05/25 13:00:36;;;;;;;0.55;0.30;;;23.50;46.70;;;;;;5077739;28;20048;-84
2022/05/25 13:03:54;;;;;;;1.00;0.50;;;24.20;43.80;;;;;;5090851;28;20523;-84
2022/05/25 13:06:46;;;;;;;0.90;0.40;;;25.40;40.20;;;;;;5049676;28;20116;-86
2022/05/25 13:09:41;;;;;;;1.05;0.40;;;25.50;39.40;;;;;;5097370;28;20083;-84
2022/05/25 13:12:44;;;;;;;0.98;0.40;;;25.50;40.40;;;;;;5091568;28;20410;-86
2022/05/25 13:15:42;;;;;;;3.75;0.50;;;24.50;39.20;;;;;;5090313;28;20052;-85
2022/05/25 13:18:53;;;;;;;3.88;0.40;;;24.70;40.30;;;;;;5098646;28;20093;-84
2022/05/25 13:21:51;;;;;;;1.73;0.57;;;26.80;44.40;;;;;;5063437;28;20050;-89
2022/05/25 13:24:59;;;;;;;0.25;0.20;;;29.10;37.20;;;;;;5088796;28;20059;-86
2022/05/25 13:28:12;;;;;;;1.83;0.60;;;30.10;35.40;;;;;;5093165;28;20063;-86
2022/05/25 13:31:26;;;;;;;1.77;0.70;;;29.20;36.60;;;;;;5093531;28;20071;-85
2022/05/25 13:34:18;;;;;;;1.90;0.60;;;26.90;35.10;;;;;;5105885;28;20059;-84
2022/05/25 13:37:11;;;;;;;9.82;0.88;;;27.10;35.60;;;;;;5078319;28;20032;-86
2022/05/25 13:40:01;;;;;;;0.80;0.38;;;27.60;35.20;;;;;;5098375;28;20520;-81
2022/05/25 13:42:53;;;;;;;3.25;0.70;;;27.30;37.60;;;;;;5087547;28;20050;-85
2022/05/25 13:45:44;;;;;;;1.13;0.45;;;26.10;37.00;;;;;;5109285;28;20442;-85
2022/05/25 13:48:31;;;;;;;2.80;0.60;;;25.40;39.70;;;;;;5096994;28;20127;-88
2022/05/25 13:51:20;;;;;;;0.88;0.35;;;26.10;39.00;;;;;;5106022;28;20063;-86
2022/05/25 13:54:33;;;;;;;1.33;0.50;;;25.10;38.30;;;;;;5104329;28;20044;-86
2022/05/25 13:57:31;;;;;;;1.67;0.50;;;23.70;39.60;;;;;;5098777;28;20040;-84
2022/05/25 14:00:22;;;;;;;1.38;0.47;;;23.20;45.80;;;;;;5096707;28;20051;-85
2022/05/25 14:03:18;;;;;;;0.77;0.40;;;24.20;43.70;;;;;;5094517;28;20036;-84
2022/05/25 14:06:06;;;;;;;1.85;0.50;;;24.50;43.20;;;;;;5105462;28;20098;-84
2022/05/25 14:12:18;;;;;;;0.30;0.30;;;23.20;40.90;;;;;;5112794;28;20028;-84
2022/05/25 14:15:17;;;;;;;1.48;0.40;;;23.50;41.30;;;;;;5101912;28;20523;-84
2022/05/25 14:18:07;;;;;;;0.30;0.30;;;23.10;41.40;;;;;;5120135;28;20074;-84
2022/05/25 14:20:58;;;;;;;2.40;0.40;;;23.80;40.90;;;;;;5115080;28;20100;-86
2022/05/25 14:23:45;;;;;;;1.13;0.35;;;25.60;37.40;;;;;;5087589;28;20458;-90
2022/05/25 14:26:38;;;;;;;4.50;0.47;;;26.50;35.90;;;;;;5075914;28;20048;-88
2022/05/25 14:29:32;;;;;;;1.88;0.50;;;24.20;37.10;;;;;;5071420;28;20075;-84
2022/05/25 14:32:30;;;;;;;2.35;0.60;;;22.60;39.00;;;;;;5076773;28;20054;-85
2022/05/25 14:35:18;;;;;;;1.40;0.52;;;23.00;39.30;;;;;;5088859;28;20075;-82
2022/05/25 14:38:10;;;;;;;0.55;0.35;;;24.80;36.50;;;;;;5078902;28;20576;-87
2022/05/25 14:41:45;;;;;;;1.65;0.43;;;26.60;34.60;;;;;;5093226;28;20048;-83
2022/05/25 14:44:41;;;;;;;0.57;0.38;;;27.20;34.00;;;;;;5097315;28;20066;-88
2022/05/25 14:47:55;;;;;;;1.27;0.50;;;26.80;36.70;;;;;;5088568;28;20071;-84
2022/05/25 14:51:01;;;;;;;0.88;0.20;;;27.60;32.60;;;;;;5093365;28;20133;-85
2022/05/25 14:53:49;;;;;;;1.73;0.40;;;28.00;34.90;;;;;;5080998;28;20123;-86
2022/05/25 14:56:37;;;;;;;0.70;0.40;;;28.60;38.20;;;;;;5081791;28;20139;-84
2022/05/25 14:59:29;;;;;;;1.88;0.40;;;27.50;38.20;;;;;;5105577;28;20473;-85
2022/05/25 15:02:34;;;;;;;2.53;0.65;;;26.90;40.00;;;;;;5094124;28;20889;-88
2022/05/25 15:05:39;;;;;;;2.90;0.70;;;27.90;39.90;;;;;;5093305;28;20668;-90
2022/05/25 15:08:31;;;;;;;4.40;0.60;;;28.90;36.60;;;;;;5106853;28;20048;-89
2022/05/25 15:11:35;;;;;;;2.33;0.70;;;30.00;36.00;;;;;;5090041;28;20072;-86
2022/05/25 15:20:47;;;;;;;0.73;0.40;;;30.20;34.70;;;;;;5124223;28;20043;-82
2022/05/25 15:23:40;;;;;;;4.45;0.50;;;29.90;38.20;;;;;;5111691;28;20059;-83
2022/05/25 15:26:35;;;;;;;1.73;0.55;;;30.20;36.30;;;;;;5105903;28;20047;-87
2022/05/25 15:29:25;;;;;;;5.03;0.40;;;29.80;35.60;;;;;;5097822;28;20385;-87
2022/05/25 15:32:18;;;;;;;4.13;0.52;;;28.20;36.00;;;;;;5093919;28;20086;-86
2022/05/25 15:35:06;;;;;;;3.35;0.60;;;26.70;40.80;;;;;;5111835;28;20047;-87
2022/05/25 15:38:00;;;;;;;1.63;0.60;;;26.20;40.90;;;;;;5079304;28;20044;-87
2022/05/25 15:40:50;;;;;;;1.38;0.77;;;25.20;42.10;;;;;;5087153;28;20072;-85
2022/05/25 15:43:39;;;;;;;3.33;0.60;;;24.30;42.70;;;;;;5070184;28;20052;-85
2022/05/25 15:46:31;;;;;;;2.40;0.50;;;23.70;45.60;;;;;;5095444;28;20144;-83